Time;durP1;ratioP1;P1;durP2;ratioP2;P2;SDS_P1;SDS_P2;PMS_P1;PMS_P2;Temp;Humidity;BMP_temperature;BMP_pressure;BME280_temperature;BME280_humidity;BME280_pressure;Samples;Min_cycle;Max_cycle;Signal;HPM_P1;HPM_P2
2022/12/26 00:02:34;;;;;;;73.10;67.25;;;;;;;;;;10192247;28;20523;-68
2022/12/26 00:07:30;;;;;;;71.63;66.03;;;;;;;;;;10191503;28;20046;-68
2022/12/26 00:12:26;;;;;;;70.43;64.97;;;;;;;;;;10192142;28;20076;-67
2022/12/26 00:17:22;;;;;;;68.60;63.20;;;;;;;;;;10192917;28;20069;-67
2022/12/26 00:22:19;;;;;;;67.03;61.85;;;;;;;;;;10191601;28;20500;-67
2022/12/26 00:27:15;;;;;;;70.28;64.55;;;;;;;;;;10175694;28;20055;-67
2022/12/26 00:32:11;;;;;;;71.95;66.32;;;;;;;;;;10152715;28;20097;-67
2022/12/26 00:37:07;;;;;;;72.25;66.45;;;;;;;;;;10184043;28;20157;-68
2022/12/26 00:42:04;;;;;;;74.25;67.95;;;;;;;;;;10207428;28;20089;-67
2022/12/26 00:47:00;;;;;;;74.20;67.72;;;;;;;;;;10190733;28;20059;-67
2022/12/26 00:51:56;;;;;;;72.40;65.72;;;;;;;;;;10192279;28;20045;-67
2022/12/26 00:56:52;;;;;;;70.65;64.05;;;;;;;;;;10196824;28;20056;-67
2022/12/26 01:01:49;;;;;;;73.38;66.22;;;;;;;;;;10199676;28;20068;-67
2022/12/26 01:06:45;;;;;;;74.68;66.70;;;;;;;;;;10196944;28;20057;-67
2022/12/26 01:11:42;;;;;;;67.90;61.67;;;;;;;;;;10197427;28;20057;-67
2022/12/26 01:16:40;;;;;;;93.90;65.28;;;;;;;;;;10198627;28;20046;-68
2022/12/26 01:21:36;;;;;;;84.43;61.03;;;;;;;;;;10197807;28;20046;-66
2022/12/26 01:26:32;;;;;;;65.05;56.78;;;;;;;;;;10198256;28;20520;-67
2022/12/26 01:31:29;;;;;;;64.72;58.83;;;;;;;;;;10184593;28;20043;-67
2022/12/26 01:36:25;;;;;;;63.65;58.20;;;;;;;;;;10200823;28;20054;-68
2022/12/26 01:41:21;;;;;;;67.28;60.83;;;;;;;;;;10188575;28;20499;-70
2022/12/26 01:46:19;;;;;;;63.40;58.13;;;;;;;;;;10184158;28;20046;-71
2022/12/26 01:51:17;;;;;;;65.72;60.13;;;;;;;;;;10196779;28;20096;-70
2022/12/26 01:56:17;;;;;;;64.45;58.80;;;;;;;;;;10196312;28;20046;-69
2022/12/26 02:01:13;;;;;;;67.10;61.58;;;;;;;;;;10197350;28;20046;-69
2022/12/26 02:06:11;;;;;;;64.50;59.33;;;;;;;;;;11161301;22;20043;-67
2022/12/26 02:11:26;;;;;;;68.63;61.60;;;;;;;;;;10113893;28;20047;-67
2022/12/26 02:16:24;;;;;;;64.43;58.78;;;;;;;;;;10143631;28;20046;-67
2022/12/26 02:21:36;;;;;;;66.45;60.13;;;;;;;;;;10116967;28;20059;-67
2022/12/26 02:26:50;;;;;;;70.07;63.00;;;;;;;;;;10137952;28;20050;-67
2022/12/26 02:32:04;;;;;;;68.90;62.25;;;;;;;;;;10116443;28;20070;-67
2022/12/26 02:37:04;;;;;;;78.25;63.67;;;;;;;;;;10136481;28;20512;-67
2022/12/26 02:42:18;;;;;;;70.95;63.83;;;;;;;;;;10116261;28;20050;-67
2022/12/26 02:47:33;;;;;;;72.18;64.40;;;;;;;;;;10133645;28;20053;-67
2022/12/26 03:13:45;;;;;;;67.88;60.88;;;;;;;;;;10137794;28;20077;-67
2022/12/26 03:18:44;;;;;;;67.25;61.58;;;;;;;;;;10153804;28;20157;-70
2022/12/26 03:23:55;;;;;;;90.80;63.47;;;;;;;;;;10125486;28;20046;-71
2022/12/26 03:28:52;;;;;;;68.50;61.42;;;;;;;;;;10147970;28;20093;-70
2022/12/26 03:39:06;;;;;;;67.75;60.97;;;;;;;;;;10126390;28;20083;-70
2022/12/26 04:53:55;;;;;;;63.97;57.88;;;;;;;;;;10126512;28;20046;-70
2022/12/26 04:58:51;;;;;;;65.10;58.72;;;;;;;;;;10159701;28;20042;-71
2022/12/26 05:14:17;;;;;;;70.05;63.35;;;;;;;;;;10141848;28;20050;-70
2022/12/26 05:29:50;;;;;;;64.20;58.17;;;;;;;;;;10142336;28;20464;-70
2022/12/26 05:34:47;;;;;;;66.38;60.17;;;;;;;;;;10132766;28;20077;-70
2022/12/26 05:39:43;;;;;;;68.38;62.22;;;;;;;;;;10128107;28;20054;-70
2022/12/26 05:44:39;;;;;;;65.90;59.85;;;;;;;;;;10131301;28;20057;-70
2022/12/26 05:49:35;;;;;;;67.88;61.33;;;;;;;;;;10127306;28;20074;-70
2022/12/26 05:54:31;;;;;;;66.47;60.08;;;;;;;;;;10130115;28;20137;-70
2022/12/26 05:59:28;;;;;;;65.03;58.88;;;;;;;;;;10122936;28;20047;-70
2022/12/26 06:04:25;;;;;;;64.85;58.72;;;;;;;;;;10128664;28;20057;-70
2022/12/26 06:09:22;;;;;;;71.93;64.32;;;;;;;;;;10117930;28;20125;-70
2022/12/26 06:14:18;;;;;;;68.15;60.72;;;;;;;;;;10127130;28;20126;-70
2022/12/26 06:19:15;;;;;;;77.53;64.80;;;;;;;;;;10156479;28;20050;-70
2022/12/26 06:24:12;;;;;;;67.70;60.20;;;;;;;;;;10142497;28;20129;-70
2022/12/26 06:29:09;;;;;;;68.38;61.08;;;;;;;;;;10155484;28;20137;-70
2022/12/26 06:34:05;;;;;;;67.70;58.92;;;;;;;;;;10124629;28;20058;-70
2022/12/26 06:39:01;;;;;;;63.80;56.95;;;;;;;;;;10145008;28;20579;-70
2022/12/26 06:43:58;;;;;;;64.85;57.92;;;;;;;;;;10123471;28;20046;-70
2022/12/26 06:48:55;;;;;;;61.90;55.45;;;;;;;;;;10132908;28;20046;-70
2022/12/26 06:53:51;;;;;;;66.22;59.45;;;;;;;;;;10121216;28;20046;-70
2022/12/26 06:58:52;;;;;;;63.05;56.75;;;;;;;;;;10115433;28;20138;-70
2022/12/26 07:03:50;;;;;;;66.50;60.10;;;;;;;;;;10118783;28;20054;-70
2022/12/26 07:08:47;;;;;;;65.80;59.40;;;;;;;;;;10114787;28;20452;-70
2022/12/26 07:13:43;;;;;;;64.13;58.30;;;;;;;;;;10119424;28;20049;-70
2022/12/26 07:18:40;;;;;;;62.95;57.03;;;;;;;;;;10154238;28;20051;-70
2022/12/26 07:23:36;;;;;;;68.00;61.80;;;;;;;;;;10141272;28;20054;-70
2022/12/26 07:28:33;;;;;;;66.22;60.22;;;;;;;;;;10154104;28;20053;-70
2022/12/26 07:33:29;;;;;;;66.50;60.35;;;;;;;;;;10122563;28;20077;-70
2022/12/26 07:38:26;;;;;;;68.10;61.95;;;;;;;;;;10141375;28;20568;-70
2022/12/26 07:43:22;;;;;;;71.35;64.82;;;;;;;;;;10116794;28;20054;-70
2022/12/26 07:48:18;;;;;;;70.65;64.28;;;;;;;;;;10133510;28;20061;-70
2022/12/26 07:53:15;;;;;;;71.57;64.95;;;;;;;;;;10115757;28;20074;-70
2022/12/26 07:58:11;;;;;;;73.50;67.10;;;;;;;;;;10115046;28;20049;-70
2022/12/26 08:03:07;;;;;;;73.18;66.88;;;;;;;;;;10113709;28;20492;-70
2022/12/26 08:08:04;;;;;;;76.63;69.88;;;;;;;;;;10161071;28;20077;-70
2022/12/26 08:13:00;;;;;;;73.15;66.53;;;;;;;;;;10154567;28;20051;-70
2022/12/26 08:17:57;;;;;;;71.05;64.55;;;;;;;;;;10160982;28;20125;-70
2022/12/26 08:22:53;;;;;;;77.25;70.35;;;;;;;;;;10135994;28;20059;-70
2022/12/26 08:27:54;;;;;;;76.20;69.20;;;;;;;;;;10160298;28;20527;-71
2022/12/26 08:32:50;;;;;;;73.88;67.07;;;;;;;;;;10123180;28;20500;-71
2022/12/26 08:37:46;;;;;;;76.07;69.20;;;;;;;;;;10147824;28;20046;-70
2022/12/26 08:42:43;;;;;;;76.47;69.18;;;;;;;;;;10120966;28;20070;-71
2022/12/26 08:48:01;;;;;;;78.05;70.65;;;;;;;;;;10099063;28;20055;-70
2022/12/26 08:52:58;;;;;;;74.70;67.97;;;;;;;;;;10120617;28;20046;-70
2022/12/26 08:57:54;;;;;;;73.75;67.25;;;;;;;;;;10127773;28;20500;-71
2022/12/26 09:02:50;;;;;;;75.65;68.80;;;;;;;;;;10119086;28;20415;-71
2022/12/26 09:07:47;;;;;;;75.80;69.30;;;;;;;;;;10157299;28;20050;-71
2022/12/26 09:12:43;;;;;;;74.82;68.43;;;;;;;;;;10139880;28;20138;-70
2022/12/26 09:17:39;;;;;;;76.65;70.07;;;;;;;;;;10156047;28;20051;-70
2022/12/26 09:22:51;;;;;;;73.95;67.43;;;;;;;;;;10126303;28;20161;-71
2022/12/26 09:27:48;;;;;;;73.95;67.88;;;;;;;;;;10156352;28;20043;-70
2022/12/26 09:32:49;;;;;;;70.50;64.63;;;;;;;;;;10079883;28;20043;-70
2022/12/26 09:37:45;;;;;;;69.43;63.53;;;;;;;;;;10151595;28;20140;-71
2022/12/26 09:42:44;;;;;;;69.20;63.20;;;;;;;;;;10118848;28;20047;-71
2022/12/26 09:47:49;;;;;;;67.63;61.75;;;;;;;;;;10143039;28;20066;-71
2022/12/26 09:52:50;;;;;;;65.03;59.60;;;;;;;;;;10118576;28;20066;-70
2022/12/26 09:57:49;;;;;;;63.30;58.13;;;;;;;;;;10131113;28;20499;-71
2022/12/26 10:02:51;;;;;;;62.78;57.63;;;;;;;;;;10118155;28;20071;-71
2022/12/26 10:07:50;;;;;;;59.43;54.60;;;;;;;;;;10117460;28;20050;-71
2022/12/26 10:13:10;;;;;;;62.50;57.08;;;;;;;;;;10117457;28;20483;-71
2022/12/26 10:18:09;;;;;;;61.90;56.83;;;;;;;;;;10078056;28;20058;-71
2022/12/26 10:23:05;;;;;;;57.42;52.70;;;;;;;;;;10109560;28;20153;-71
2022/12/26 10:28:03;;;;;;;59.35;54.33;;;;;;;;;;10146350;28;20557;-71
2022/12/26 10:33:01;;;;;;;57.88;52.92;;;;;;;;;;10116975;28;20053;-71
2022/12/26 10:38:00;;;;;;;54.20;49.92;;;;;;;;;;10145881;28;20523;-71
2022/12/26 10:42:59;;;;;;;56.53;52.10;;;;;;;;;;10116724;28;20050;-71
2022/12/26 10:47:56;;;;;;;53.17;48.88;;;;;;;;;;10143233;28;20787;-71
2022/12/26 10:52:52;;;;;;;54.53;50.45;;;;;;;;;;10116291;28;20053;-71
2022/12/26 10:57:50;;;;;;;54.72;50.28;;;;;;;;;;10136339;28;20477;-71
2022/12/26 11:03:04;;;;;;;54.42;50.20;;;;;;;;;;10115764;28;20061;-71
2022/12/26 11:08:05;;;;;;;53.75;49.45;;;;;;;;;;10098987;28;20489;-71
2022/12/26 11:13:05;;;;;;;49.30;45.55;;;;;;;;;;10114096;28;20446;-71
2022/12/26 11:18:07;;;;;;;50.67;46.45;;;;;;;;;;10114288;28;20058;-71
2022/12/26 11:23:25;;;;;;;46.08;42.38;;;;;;;;;;10114969;28;20046;-71
2022/12/26 11:28:27;;;;;;;47.47;43.67;;;;;;;;;;10154168;28;20045;-71
2022/12/26 11:33:28;;;;;;;44.92;41.50;;;;;;;;;;10127701;28;20045;-71
2022/12/26 11:38:34;;;;;;;43.60;40.17;;;;;;;;;;10152714;28;20105;-71
2022/12/26 11:43:40;;;;;;;42.65;39.13;;;;;;;;;;10085118;28;20492;-70
2022/12/26 11:48:37;;;;;;;41.35;38.15;;;;;;;;;;10146265;28;20126;-70
2022/12/26 11:53:33;;;;;;;40.67;37.45;;;;;;;;;;10118260;28;20042;-71
2022/12/26 11:58:31;;;;;;;42.65;39.05;;;;;;;;;;10131745;28;20038;-70
2022/12/26 12:03:27;;;;;;;39.58;36.30;;;;;;;;;;10117348;28;20054;-70
2022/12/26 12:08:28;;;;;;;37.55;34.55;;;;;;;;;;10118087;28;20064;-70
2022/12/26 12:13:27;;;;;;;38.10;35.00;;;;;;;;;;10114400;28;20065;-71
2022/12/26 12:18:36;;;;;;;39.67;36.30;;;;;;;;;;10113420;28;20051;-70
2022/12/26 12:23:32;;;;;;;43.13;39.75;;;;;;;;;;10116489;28;20539;-70
2022/12/26 12:28:47;;;;;;;48.13;44.15;;;;;;;;;;10152991;28;20042;-70
2022/12/26 12:34:02;;;;;;;48.75;45.05;;;;;;;;;;10128973;28;20562;-71
2022/12/26 12:38:58;;;;;;;52.05;47.55;;;;;;;;;;10152627;28;20051;-71
2022/12/26 12:44:03;;;;;;;48.90;45.25;;;;;;;;;;10127237;28;20134;-71
2022/12/26 12:49:08;;;;;;;46.92;43.08;;;;;;;;;;10141608;28;20051;-71
2022/12/26 12:54:22;;;;;;;48.58;44.80;;;;;;;;;;10128603;28;20129;-70
2022/12/26 12:59:28;;;;;;;44.35;40.88;;;;;;;;;;10135499;28;20242;-70
2022/12/26 13:04:28;;;;;;;40.97;38.15;;;;;;;;;;10120195;28;20069;-70
2022/12/26 13:09:28;;;;;;;39.75;36.78;;;;;;;;;;10118723;28;20122;-70
2022/12/26 13:14:33;;;;;;;40.20;36.88;;;;;;;;;;10119633;28;20118;-70
2022/12/26 13:19:29;;;;;;;43.20;39.95;;;;;;;;;;10119675;28;20566;-66
2022/12/26 13:24:40;;;;;;;46.20;42.92;;;;;;;;;;10129920;28;20054;-66
2022/12/26 13:29:40;;;;;;;43.75;41.05;;;;;;;;;;10158468;28;20706;-66
2022/12/26 13:34:36;;;;;;;39.80;37.30;;;;;;;;;;10146158;28;20042;-67
2022/12/26 13:39:34;;;;;;;28.00;26.13;;;;;;;;;;10157645;28;20153;-66
2022/12/26 13:44:31;;;;;;;19.08;17.40;;;;;;;;;;10130184;28;20046;-66
2022/12/26 13:49:30;;;;;;;14.63;13.50;;;;;;;;;;10152542;28;20043;-67
2022/12/26 13:54:27;;;;;;;13.57;12.60;;;;;;;;;;10129522;28;20050;-67
2022/12/26 13:59:29;;;;;;;14.57;13.65;;;;;;;;;;10137702;28;20488;-66
2022/12/26 14:04:34;;;;;;;16.73;15.13;;;;;;;;;;10127997;28;20056;-66
2022/12/26 14:09:38;;;;;;;18.50;16.95;;;;;;;;;;10117362;28;20504;-66
2022/12/26 14:14:35;;;;;;;20.63;18.95;;;;;;;;;;10128874;28;20080;-66
2022/12/26 14:19:50;;;;;;;22.00;20.65;;;;;;;;;;10156395;28;20057;-65
2022/12/26 14:25:01;;;;;;;27.70;25.70;;;;;;;;;;10145557;28;20129;-66
2022/12/26 14:30:04;;;;;;;30.02;27.40;;;;;;;;;;10156522;28;20473;-65
2022/12/26 14:35:17;;;;;;;29.75;27.58;;;;;;;;;;10108594;28;20129;-66
2022/12/26 14:40:13;;;;;;;33.27;30.77;;;;;;;;;;10151889;28;20130;-67
2022/12/26 14:45:37;;;;;;;38.58;34.83;;;;;;;;;;10133700;28;20118;-67
2022/12/26 14:50:36;;;;;;;29.52;26.90;;;;;;;;;;10161395;28;20129;-67
2022/12/26 14:55:46;;;;;;;33.38;30.48;;;;;;;;;;10136209;28;20058;-66
2022/12/26 15:00:43;;;;;;;32.67;30.25;;;;;;;;;;10127456;28;20129;-66
2022/12/26 15:05:43;;;;;;;34.25;31.65;;;;;;;;;;10136177;28;20042;-66
2022/12/26 15:11:06;;;;;;;37.00;34.50;;;;;;;;;;10127111;28;20137;-66
2022/12/26 15:16:03;;;;;;;39.00;36.25;;;;;;;;;;10139202;28;20050;-65
2022/12/26 15:20:59;;;;;;;37.30;34.42;;;;;;;;;;10085535;28;20047;-66
2022/12/26 15:26:04;;;;;;;41.08;38.28;;;;;;;;;;10120928;28;20129;-66
2022/12/26 15:31:09;;;;;;;41.28;37.88;;;;;;;;;;10075778;28;20048;-66
2022/12/26 15:36:23;;;;;;;42.10;39.17;;;;;;;;;;10110814;28;20039;-65
2022/12/26 15:41:32;;;;;;;40.22;37.42;;;;;;;;;;10114595;28;20448;-66
2022/12/26 15:46:34;;;;;;;41.80;37.85;;;;;;;;;;10140719;28;20050;-66
2022/12/26 15:51:50;;;;;;;38.80;35.58;;;;;;;;;;10147794;28;20046;-66
2022/12/26 15:57:01;;;;;;;38.75;35.88;;;;;;;;;;10144249;28;20453;-65
2022/12/26 16:01:58;;;;;;;38.15;34.85;;;;;;;;;;10136592;28;20137;-66
2022/12/26 16:07:20;;;;;;;39.20;35.67;;;;;;;;;;10144460;28;20125;-66
2022/12/26 16:12:24;;;;;;;38.00;34.90;;;;;;;;;;10117285;28;20129;-66
2022/12/26 16:17:21;;;;;;;35.45;32.25;;;;;;;;;;10147666;28;20572;-66
2022/12/26 16:22:42;;;;;;;31.05;27.35;;;;;;;;;;10115570;28;20125;-65
2022/12/26 16:27:39;;;;;;;24.58;22.17;;;;;;;;;;10155825;28;20042;-66
2022/12/26 16:32:36;;;;;;;22.80;20.50;;;;;;;;;;10120634;28;20043;-66
2022/12/26 16:37:33;;;;;;;21.95;20.15;;;;;;;;;;10150850;28;20086;-67
2022/12/26 16:42:30;;;;;;;21.05;18.95;;;;;;;;;;10121209;28;20509;-66
2022/12/26 16:47:28;;;;;;;24.92;19.98;;;;;;;;;;10141081;28;20138;-66
2022/12/26 16:52:35;;;;;;;26.40;19.08;;;;;;;;;;10120636;28;20054;-66
2022/12/26 16:57:41;;;;;;;22.42;17.45;;;;;;;;;;10139028;28;20055;-67
2022/12/26 17:02:43;;;;;;;23.48;16.55;;;;;;;;;;10120706;28;20543;-66
2022/12/26 17:07:42;;;;;;;22.43;16.43;;;;;;;;;;10123577;28;20047;-66
2022/12/26 17:12:39;;;;;;;22.73;16.80;;;;;;;;;;10118425;28;20138;-66
2022/12/26 17:17:36;;;;;;;18.33;16.63;;;;;;;;;;10155981;28;20046;-66
2022/12/26 17:22:34;;;;;;;25.17;17.02;;;;;;;;;;10142077;28;20130;-66
2022/12/26 17:27:31;;;;;;;18.55;16.75;;;;;;;;;;10154951;28;20058;-66
2022/12/26 17:32:27;;;;;;;25.17;17.33;;;;;;;;;;10131061;28;20071;-66
2022/12/26 17:37:23;;;;;;;22.02;16.08;;;;;;;;;;10147118;28;20046;-66
2022/12/26 17:42:20;;;;;;;19.40;17.45;;;;;;;;;;10118671;28;20050;-67
2022/12/26 17:47:24;;;;;;;22.90;16.58;;;;;;;;;;10133298;28;20054;-66
2022/12/26 17:52:22;;;;;;;18.63;14.85;;;;;;;;;;10118837;28;20456;-66
2022/12/26 17:57:22;;;;;;;20.38;16.58;;;;;;;;;;10122794;28;20078;-66
2022/12/26 18:02:19;;;;;;;33.33;16.75;;;;;;;;;;10117882;28;20055;-67
2022/12/26 18:07:24;;;;;;;19.40;15.52;;;;;;;;;;10121552;28;20043;-67
2022/12/26 18:12:27;;;;;;;19.42;14.98;;;;;;;;;;10116939;28;20480;-66
2022/12/26 18:17:23;;;;;;;20.48;13.88;;;;;;;;;;10151956;28;20137;-67
2022/12/26 18:22:19;;;;;;;18.05;13.93;;;;;;;;;;10138828;28;20054;-66
2022/12/26 18:27:17;;;;;;;18.80;13.73;;;;;;;;;;10150476;28;20158;-66
2022/12/26 18:32:27;;;;;;;18.80;13.90;;;;;;;;;;10139170;28;20517;-66
2022/12/26 18:37:25;;;;;;;25.50;14.30;;;;;;;;;;10151341;28;20424;-66
2022/12/26 18:42:21;;;;;;;17.48;14.27;;;;;;;;;;10128087;28;20125;-67
2022/12/26 18:47:18;;;;;;;22.25;15.52;;;;;;;;;;10147085;28;20049;-66
2022/12/26 18:52:14;;;;;;;28.25;15.70;;;;;;;;;;10131317;28;20517;-66
2022/12/26 18:57:17;;;;;;;20.65;16.50;;;;;;;;;;10129258;28;20073;-66
2022/12/26 19:02:15;;;;;;;17.77;15.18;;;;;;;;;;10116169;28;20051;-66
2022/12/26 19:07:12;;;;;;;25.55;16.83;;;;;;;;;;10121965;28;20051;-66
2022/12/26 19:12:08;;;;;;;23.15;15.48;;;;;;;;;;10115687;28;20121;-66
2022/12/26 19:17:04;;;;;;;16.90;15.15;;;;;;;;;;10121914;28;20050;-66
2022/12/26 19:22:01;;;;;;;19.45;17.08;;;;;;;;;;10115313;28;20078;-66
2022/12/26 19:26:57;;;;;;;16.75;15.02;;;;;;;;;;10128266;28;20525;-66
2022/12/26 19:31:55;;;;;;;16.67;15.05;;;;;;;;;;10115365;28;20046;-65
2022/12/26 19:36:51;;;;;;;20.33;14.68;;;;;;;;;;10144245;28;20049;-66
2022/12/26 19:41:47;;;;;;;17.50;15.52;;;;;;;;;;10150806;28;20097;-66
2022/12/26 19:46:43;;;;;;;27.85;14.80;;;;;;;;;;10143545;28;20074;-66
2022/12/26 19:51:40;;;;;;;19.17;15.00;;;;;;;;;;10148009;28;20042;-66
2022/12/26 19:56:36;;;;;;;25.80;15.85;;;;;;;;;;10142335;28;20058;-66
2022/12/26 20:01:32;;;;;;;17.30;13.27;;;;;;;;;;10135709;28;20130;-66
2022/12/26 20:06:30;;;;;;;20.13;14.82;;;;;;;;;;10141308;28;20057;-66
2022/12/26 20:11:28;;;;;;;18.85;15.88;;;;;;;;;;10121829;28;20520;-66
2022/12/26 20:16:25;;;;;;;21.58;15.45;;;;;;;;;;10137800;28;20082;-66
2022/12/26 20:21:42;;;;;;;26.80;16.95;;;;;;;;;;10113382;28;20043;-66
2022/12/26 20:26:38;;;;;;;18.25;15.30;;;;;;;;;;10124102;28;20059;-66
2022/12/26 20:31:35;;;;;;;25.88;15.38;;;;;;;;;;10113881;28;20587;-66
2022/12/26 20:36:32;;;;;;;17.55;15.27;;;;;;;;;;10150145;28;20055;-66
2022/12/26 20:41:28;;;;;;;19.17;14.98;;;;;;;;;;10138526;28;20051;-66
2022/12/26 20:46:26;;;;;;;31.45;16.45;;;;;;;;;;10140096;28;20073;-66
2022/12/26 20:51:24;;;;;;;20.90;15.75;;;;;;;;;;10134002;28;20070;-66
2022/12/26 20:56:21;;;;;;;17.63;15.95;;;;;;;;;;10139634;28;20526;-66
2022/12/26 21:01:19;;;;;;;20.02;16.00;;;;;;;;;;10125649;28;20050;-66
2022/12/26 21:06:17;;;;;;;18.45;16.00;;;;;;;;;;10138270;28;20054;-66
2022/12/26 21:11:16;;;;;;;18.98;15.95;;;;;;;;;;10119299;28;20138;-66
2022/12/26 21:16:17;;;;;;;28.75;18.27;;;;;;;;;;10144874;28;20069;-66
2022/12/26 21:21:16;;;;;;;18.45;16.52;;;;;;;;;;10134307;28;20085;-66
2022/12/26 21:26:12;;;;;;;18.77;16.00;;;;;;;;;;10138423;28;20054;-66
2022/12/26 21:31:09;;;;;;;27.90;17.20;;;;;;;;;;10119217;28;20082;-66
2022/12/26 21:36:09;;;;;;;23.50;16.42;;;;;;;;;;10128197;28;20046;-66
2022/12/26 21:41:07;;;;;;;17.52;15.00;;;;;;;;;;10118917;28;20051;-65
2022/12/26 21:46:05;;;;;;;20.10;18.13;;;;;;;;;;10118369;28;20142;-66
2022/12/26 21:51:02;;;;;;;21.10;18.30;;;;;;;;;;10118700;28;20082;-66
2022/12/26 21:56:03;;;;;;;22.70;18.33;;;;;;;;;;10141459;28;20076;-66
2022/12/26 22:00:59;;;;;;;21.67;18.83;;;;;;;;;;10155802;28;20374;-66
2022/12/26 22:05:55;;;;;;;21.15;19.60;;;;;;;;;;10140864;28;20050;-66
2022/12/26 22:16:08;;;;;;;23.67;21.20;;;;;;;;;;10142287;28;20050;-66
2022/12/26 22:21:06;;;;;;;26.00;21.35;;;;;;;;;;10149774;28;20039;-66
2022/12/26 22:26:03;;;;;;;25.25;20.67;;;;;;;;;;10140147;28;20052;-66
2022/12/26 22:30:59;;;;;;;24.45;22.17;;;;;;;;;;10143864;28;20054;-66
2022/12/26 22:36:06;;;;;;;24.42;21.50;;;;;;;;;;10140037;28;20057;-66
2022/12/26 22:41:03;;;;;;;23.70;21.38;;;;;;;;;;10129437;28;20428;-66
2022/12/26 22:45:59;;;;;;;24.70;22.15;;;;;;;;;;10134630;28;20070;-66
2022/12/26 22:50:56;;;;;;;25.17;22.55;;;;;;;;;;10115994;28;20419;-65
2022/12/26 22:55:57;;;;;;;26.08;23.40;;;;;;;;;;10122849;28;20133;-67
2022/12/26 23:00:53;;;;;;;33.08;25.35;;;;;;;;;;10116814;28;20077;-67
2022/12/26 23:05:50;;;;;;;23.23;21.40;;;;;;;;;;10136964;28;20050;-67
2022/12/26 23:10:47;;;;;;;23.90;21.23;;;;;;;;;;10155956;28;20046;-67
2022/12/26 23:16:04;;;;;;;24.63;22.08;;;;;;;;;;10136510;28;20109;-67
2022/12/26 23:26:20;;;;;;;23.52;21.33;;;;;;;;;;10141322;28;20050;-67
2022/12/26 23:31:16;;;;;;;23.58;21.42;;;;;;;;;;10134538;28;20431;-67
2022/12/26 23:36:13;;;;;;;23.00;20.88;;;;;;;;;;10139771;28;20511;-67
2022/12/26 23:41:09;;;;;;;24.67;22.58;;;;;;;;;;10117129;28;20057;-67
2022/12/26 23:46:09;;;;;;;23.15;21.00;;;;;;;;;;10139088;28;20142;-67
2022/12/26 23:51:06;;;;;;;30.30;24.50;;;;;;;;;;10113777;28;20051;-67
2022/12/26 23:56:05;;;;;;;24.13;22.40;;;;;;;;;;10132659;28;20146;-67
